Disclaimer

Please do not use the information listed here in-flight or in-navigation, as they are not provided to us by the airports but are provided by volunteers, so they might be outdated.

Search


Regions


Airport information page

Radio informations:
Tower (TWR) - 118.5 MHz
Ground (GND) - 121.7 MHz
Approach (APP) - 126.5 MHz

Airport informations:
Latitude: 26° 33' 31.27" N
Longitude: 078° 41' 43.99" W
Elevation: 7 feet - 2 meters
Operating hours: Remarks
Operating agency: Civil government, landing fees and diplomatic clearance may be required
Timezone: UTC-5(-4DT) - Second Sunday in March at 0200 to first Sunday in November at 0200 local time (Exception Arizona and that portion of Indiana in the Eastern Time Zone)
Fuel: Jet A1, without icing nhibitor.

100/130 MIL Spec, low lead, aviation gasoline (BLUE)

Runway information:
06/24 - 11019 x 151 feet< - >3359 x 46 meters

Recent METARs:
MYGF 131400Z 00000KT 9000 -TSRA FEW008 SCT012CB BKN020 24/24 A3010 RMK TS/CB NW-N TCU ALQDS OCNL LTGICCG
MYGF 131400Z 00000KT 9000 -TSRA FEW008 SCT012CB BKN020 24/24 A3010 RMK TS/CB NW-N TCU ALQDS OCNL LTGICCG
MYGF 131400Z 00000KT 9000 -TSRA FEW008 SCT012CB BKN020 24/24 A3010 RMK TS/CB NW-N TCU ALQDS OCNL LTGICCG

Airport on the map: